sensor_id;sensor_type;location;lat;lon;timestamp;P1;P2;P0
57623;PMS7003;43448;52.264;20.644;2023-06-24T00:00:01;4;4;
57623;PMS7003;43448;52.264;20.644;2023-06-24T00:10:00;6;6;
57623;PMS7003;43448;52.264;20.644;2023-06-24T00:20:00;9;6;
57623;PMS7003;43448;52.264;20.644;2023-06-24T00:30:00;6;6;
57623;PMS7003;43448;52.264;20.644;2023-06-24T00:40:00;8;5;
57623;PMS7003;43448;52.264;20.644;2023-06-24T00:50:00;3;3;
57623;PMS7003;43448;52.264;20.644;2023-06-24T01:00:00;8;5;
57623;PMS7003;43448;52.264;20.644;2023-06-24T01:10:00;5;5;
57623;PMS7003;43448;52.264;20.644;2023-06-24T01:20:03;5;5;
57623;PMS7003;43448;52.264;20.644;2023-06-24T01:30:12;6;5;
57623;PMS7003;43448;52.264;20.644;2023-06-24T01:40:02;9;8;
57623;PMS7003;43448;52.264;20.644;2023-06-24T01:50:01;6;4;
57623;PMS7003;43448;52.264;20.644;2023-06-24T02:00:00;6;5;
57623;PMS7003;43448;52.264;20.644;2023-06-24T02:10:00;7;7;
57623;PMS7003;43448;52.264;20.644;2023-06-24T02:20:00;5;5;
57623;PMS7003;43448;52.264;20.644;2023-06-24T02:30:00;7;5;
57623;PMS7003;43448;52.264;20.644;2023-06-24T02:40:00;6;6;
57623;PMS7003;43448;52.264;20.644;2023-06-24T02:50:00;4;4;
57623;PMS7003;43448;52.264;20.644;2023-06-24T03:00:00;6;6;
57623;PMS7003;43448;52.264;20.644;2023-06-24T03:10:01;6;4;
57623;PMS7003;43448;52.264;20.644;2023-06-24T03:20:00;8;5;
57623;PMS7003;43448;52.264;20.644;2023-06-24T03:30:00;9;6;
57623;PMS7003;43448;52.264;20.644;2023-06-24T03:40:00;7;5;
57623;PMS7003;43448;52.264;20.644;2023-06-24T03:50:00;6;6;
57623;PMS7003;43448;52.264;20.644;2023-06-24T04:00:00;5;5;
57623;PMS7003;43448;52.264;20.644;2023-06-24T04:10:01;10;9;
57623;PMS7003;43448;52.264;20.644;2023-06-24T04:20:00;5;5;
57623;PMS7003;43448;52.264;20.644;2023-06-24T04:30:00;5;5;
57623;PMS7003;43448;52.264;20.644;2023-06-24T04:40:00;6;6;
57623;PMS7003;43448;52.264;20.644;2023-06-24T04:50:00;7;5;
57623;PMS7003;43448;52.264;20.644;2023-06-24T05:00:00;8;7;
57623;PMS7003;43448;52.264;20.644;2023-06-24T05:10:00;9;9;
57623;PMS7003;43448;52.264;20.644;2023-06-24T05:20:00;12;7;
57623;PMS7003;43448;52.264;20.644;2023-06-24T05:30:00;6;5;
57623;PMS7003;43448;52.264;20.644;2023-06-24T05:40:01;9;8;
57623;PMS7003;43448;52.264;20.644;2023-06-24T05:50:00;5;4;
57623;PMS7003;43448;52.264;20.644;2023-06-24T06:00:00;6;6;
57623;PMS7003;43448;52.264;20.644;2023-06-24T06:10:00;10;8;
57623;PMS7003;43448;52.264;20.644;2023-06-24T06:20:00;5;5;
57623;PMS7003;43448;52.264;20.644;2023-06-24T06:30:00;5;5;
57623;PMS7003;43448;52.264;20.644;2023-06-24T06:40:01;7;7;
57623;PMS7003;43448;52.264;20.644;2023-06-24T06:50:00;7;7;
57623;PMS7003;43448;52.264;20.644;2023-06-24T07:00:00;7;6;
57623;PMS7003;43448;52.264;20.644;2023-06-24T07:10:00;7;5;
57623;PMS7003;43448;52.264;20.644;2023-06-24T07:20:00;8;7;
57623;PMS7003;43448;52.264;20.644;2023-06-24T07:30:00;5;5;
57623;PMS7003;43448;52.264;20.644;2023-06-24T07:40:00;4;4;
57623;PMS7003;43448;52.264;20.644;2023-06-24T07:50:00;6;6;
57623;PMS7003;43448;52.264;20.644;2023-06-24T08:00:00;6;5;
57623;PMS7003;43448;52.264;20.644;2023-06-24T08:10:00;6;4;
57623;PMS7003;43448;52.264;20.644;2023-06-24T08:20:00;5;4;
57623;PMS7003;43448;52.264;20.644;2023-06-24T08:30:00;8;4;
57623;PMS7003;43448;52.264;20.644;2023-06-24T08:40:00;5;5;
57623;PMS7003;43448;52.264;20.644;2023-06-24T08:50:02;5;5;
57623;PMS7003;43448;52.264;20.644;2023-06-24T09:00:00;6;5;
57623;PMS7003;43448;52.264;20.644;2023-06-24T09:10:00;4;4;
57623;PMS7003;43448;52.264;20.644;2023-06-24T09:20:04;7;6;
57623;PMS7003;43448;52.264;20.644;2023-06-24T09:30:00;5;3;
57623;PMS7003;43448;52.264;20.644;2023-06-24T09:40:00;8;6;
57623;PMS7003;43448;52.264;20.644;2023-06-24T09:50:00;8;6;
57623;PMS7003;43448;52.264;20.644;2023-06-24T10:00:00;8;5;
57623;PMS7003;43448;52.264;20.644;2023-06-24T10:10:01;8;6;
57623;PMS7003;43448;52.264;20.644;2023-06-24T10:20:03;6;6;
57623;PMS7003;43448;52.264;20.644;2023-06-24T10:30:02;6;6;
57623;PMS7003;43448;52.264;20.644;2023-06-24T10:40:00;9;7;
57623;PMS7003;43448;52.264;20.644;2023-06-24T10:50:00;6;6;
57623;PMS7003;43448;52.264;20.644;2023-06-24T11:00:00;6;5;
57623;PMS7003;43448;52.264;20.644;2023-06-24T11:10:02;5;5;
57623;PMS7003;43448;52.264;20.644;2023-06-24T11:20:00;7;6;
57623;PMS7003;43448;52.264;20.644;2023-06-24T11:30:00;6;6;
57623;PMS7003;43448;52.264;20.644;2023-06-24T11:40:01;8;7;
57623;PMS7003;43448;52.264;20.644;2023-06-24T11:50:01;8;7;
57623;PMS7003;43448;52.264;20.644;2023-06-24T12:00:00;6;5;
57623;PMS7003;43448;52.264;20.644;2023-06-24T12:10:00;7;7;
57623;PMS7003;43448;52.264;20.644;2023-06-24T12:20:00;8;5;
57623;PMS7003;43448;52.264;20.644;2023-06-24T12:30:00;8;8;
57623;PMS7003;43448;52.264;20.644;2023-06-24T12:40:00;11;10;
57623;PMS7003;43448;52.264;20.644;2023-06-24T12:50:00;10;9;
57623;PMS7003;43448;52.264;20.644;2023-06-24T13:00:00;15;11;
57623;PMS7003;43448;52.264;20.644;2023-06-24T13:10:00;15;9;
57623;PMS7003;43448;52.264;20.644;2023-06-24T13:20:00;12;11;
57623;PMS7003;43448;52.264;20.644;2023-06-24T13:30:00;9;8;
57623;PMS7003;43448;52.264;20.644;2023-06-24T13:40:00;12;9;
57623;PMS7003;43448;52.264;20.644;2023-06-24T13:50:00;9;8;
57623;PMS7003;43448;52.264;20.644;2023-06-24T14:00:00;13;9;
57623;PMS7003;43448;52.264;20.644;2023-06-24T14:10:00;8;6;
57623;PMS7003;43448;52.264;20.644;2023-06-24T14:20:00;6;5;
57623;PMS7003;43448;52.264;20.644;2023-06-24T14:30:00;10;7;
57623;PMS7003;43448;52.264;20.644;2023-06-24T14:40:00;8;7;
57623;PMS7003;43448;52.264;20.644;2023-06-24T14:50:01;5;5;
57623;PMS7003;43448;52.264;20.644;2023-06-24T15:00:00;8;7;
57623;PMS7003;43448;52.264;20.644;2023-06-24T15:10:00;10;5;
57623;PMS7003;43448;52.264;20.644;2023-06-24T15:20:00;8;6;
57623;PMS7003;43448;52.264;20.644;2023-06-24T15:30:00;7;7;
57623;PMS7003;43448;52.264;20.644;2023-06-24T15:40:00;5;5;
57623;PMS7003;43448;52.264;20.644;2023-06-24T15:50:00;8;7;
57623;PMS7003;43448;52.264;20.644;2023-06-24T16:00:00;13;5;
57623;PMS7003;43448;52.264;20.644;2023-06-24T16:10:00;6;6;
57623;PMS7003;43448;52.264;20.644;2023-06-24T16:20:00;6;5;
57623;PMS7003;43448;52.264;20.644;2023-06-24T16:30:00;6;6;
57623;PMS7003;43448;52.264;20.644;2023-06-24T16:40:00;6;6;
57623;PMS7003;43448;52.264;20.644;2023-06-24T16:50:00;7;6;
57623;PMS7003;43448;52.264;20.644;2023-06-24T17:00:00;4;3;
57623;PMS7003;43448;52.264;20.644;2023-06-24T17:10:00;4;4;
57623;PMS7003;43448;52.264;20.644;2023-06-24T17:20:00;4;3;
57623;PMS7003;43448;52.264;20.644;2023-06-24T17:30:00;6;6;
57623;PMS7003;43448;52.264;20.644;2023-06-24T17:40:00;6;6;
57623;PMS7003;43448;52.264;20.644;2023-06-24T17:50:00;8;7;
57623;PMS7003;43448;52.264;20.644;2023-06-24T18:00:00;3;3;
57623;PMS7003;43448;52.264;20.644;2023-06-24T18:10:00;4;4;
57623;PMS7003;43448;52.264;20.644;2023-06-24T18:20:00;8;7;
57623;PMS7003;43448;52.264;20.644;2023-06-24T18:30:00;7;4;
57623;PMS7003;43448;52.264;20.644;2023-06-24T18:40:00;5;5;
57623;PMS7003;43448;52.264;20.644;2023-06-24T18:50:00;5;5;
57623;PMS7003;43448;52.264;20.644;2023-06-24T19:00:00;7;4;
57623;PMS7003;43448;52.264;20.644;2023-06-24T19:10:00;6;6;
57623;PMS7003;43448;52.264;20.644;2023-06-24T19:20:00;11;8;
57623;PMS7003;43448;52.264;20.644;2023-06-24T19:30:00;6;5;
57623;PMS7003;43448;52.264;20.644;2023-06-24T19:40:00;8;8;
57623;PMS7003;43448;52.264;20.644;2023-06-24T19:50:00;11;5;
57623;PMS7003;43448;52.264;20.644;2023-06-24T20:00:00;13;7;
57623;PMS7003;43448;52.264;20.644;2023-06-24T20:10:00;10;10;
57623;PMS7003;43448;52.264;20.644;2023-06-24T20:20:00;11;9;
57623;PMS7003;43448;52.264;20.644;2023-06-24T20:30:00;9;8;
57623;PMS7003;43448;52.264;20.644;2023-06-24T20:40:01;8;6;
57623;PMS7003;43448;52.264;20.644;2023-06-24T20:50:00;10;10;
57623;PMS7003;43448;52.264;20.644;2023-06-24T21:00:00;11;8;
57623;PMS7003;43448;52.264;20.644;2023-06-24T21:10:00;9;7;
57623;PMS7003;43448;52.264;20.644;2023-06-24T21:20:00;11;10;
57623;PMS7003;43448;52.264;20.644;2023-06-24T21:30:00;11;8;
57623;PMS7003;43448;52.264;20.644;2023-06-24T21:40:00;11;10;
57623;PMS7003;43448;52.264;20.644;2023-06-24T21:50:00;11;10;
57623;PMS7003;43448;52.264;20.644;2023-06-24T22:00:00;9;9;
57623;PMS7003;43448;52.264;20.644;2023-06-24T22:10:00;11;11;
57623;PMS7003;43448;52.264;20.644;2023-06-24T22:20:00;13;13;
57623;PMS7003;43448;52.264;20.644;2023-06-24T22:30:00;12;12;
57623;PMS7003;43448;52.264;20.644;2023-06-24T22:40:00;12;10;
57623;PMS7003;43448;52.264;20.644;2023-06-24T22:50:00;10;10;
57623;PMS7003;43448;52.264;20.644;2023-06-24T23:00:00;12;11;
57623;PMS7003;43448;52.264;20.644;2023-06-24T23:10:01;14;11;
57623;PMS7003;43448;52.264;20.644;2023-06-24T23:20:00;14;13;
57623;PMS7003;43448;52.264;20.644;2023-06-24T23:30:00;11;10;
57623;PMS7003;43448;52.264;20.644;2023-06-24T23:40:00;15;11;
57623;PMS7003;43448;52.264;20.644;2023-06-24T23:50:00;13;10;
